Woodstock, Minnesota
Current Conditions -  °F | °C
As of 4:35 PM on Monday 26 Jan 2015 (Local Time) from KPQN Reporting Station
Clear Clear  
Wind Chill: 34°   Ceiling: Unl
Heat Index: 43°   Visibility: 10mi
Dew Point: 36°   Wind: 20mph
Humidity: 76%   Direction: 340°NNW
Pressure: 29.91"   Gusts: 25mph
Location:  44.01°N, 96.1°W
Report Text: KPQN 262235Z AUTO 34017G22KT 10SM CLR 06/02 A2991 RMK AO2
Loading
Personal Weather Stations






























Interactive Weather Map New forecast layout! Learn more

10-Day Weather Forecast

Advertisements
Track Severe Weather on mobile